createdAt,value
2023-04-08T00:01:30.833Z,79.54
2023-04-08T00:03:57.476Z,79.46
2023-04-08T00:06:24.152Z,80.28
2023-04-08T00:08:51.177Z,79.77
2023-04-08T00:11:17.680Z,80.12
2023-04-08T00:13:44.361Z,79.80
2023-04-08T00:16:10.781Z,80.00
2023-04-08T00:18:38.472Z,80.17
2023-04-08T00:21:04.948Z,80.08
2023-04-08T00:23:31.342Z,79.49
2023-04-08T00:25:57.821Z,79.42
2023-04-08T00:28:24.302Z,79.77
2023-04-08T00:30:51.654Z,79.01
2023-04-08T00:33:18.777Z,79.53
2023-04-08T00:35:46.191Z,79.46
2023-04-08T00:38:12.709Z,79.30
2023-04-08T00:40:39.258Z,79.79
2023-04-08T00:43:05.906Z,80.38
2023-04-08T00:45:33.651Z,79.99
2023-04-08T00:48:00.669Z,80.94
2023-04-08T00:50:27.112Z,81.06
2023-04-08T00:52:53.504Z,80.56
2023-04-08T00:55:20.056Z,81.07
2023-04-08T00:57:47.641Z,80.45
2023-04-08T01:00:15.676Z,81.39
2023-04-08T01:02:42.185Z,80.69
2023-04-08T01:05:46.095Z,80.59
2023-04-08T01:08:14.142Z,80.88
2023-04-08T01:10:44.282Z,80.75
2023-04-08T01:13:12.680Z,80.45
2023-04-08T01:15:41.308Z,80.57
2023-04-08T01:23:17.992Z,81.07
2023-04-08T01:25:52.497Z,81.11
2023-04-08T01:28:21.275Z,81.00
2023-04-08T01:30:49.822Z,80.84
2023-04-08T01:33:37.440Z,80.97
2023-04-08T01:36:03.939Z,80.97
2023-04-08T01:38:31.910Z,81.54
2023-04-08T01:40:58.993Z,81.07
2023-04-08T01:43:27.790Z,81.59
2023-04-08T01:45:58.312Z,82.07
2023-04-08T01:48:25.738Z,81.77
2023-04-08T01:50:52.917Z,82.26
2023-04-08T01:53:19.590Z,81.68
2023-04-08T01:55:49.524Z,81.33
2023-04-08T01:58:21.110Z,81.42
2023-04-08T02:00:48.377Z,81.21
2023-04-08T02:03:18.669Z,81.08
2023-04-08T02:05:45.299Z,81.34
2023-04-08T02:08:12.310Z,81.61
2023-04-08T02:10:38.717Z,81.68
2023-04-08T02:13:05.633Z,81.91
2023-04-08T02:15:36.235Z,81.66
2023-04-08T02:18:13.314Z,82.43
2023-04-08T02:20:45.942Z,82.33
2023-04-08T02:23:21.625Z,82.12
2023-04-08T02:25:50.419Z,81.50
2023-04-08T02:28:19.713Z,81.97
2023-04-08T02:30:51.400Z,81.37
2023-04-08T02:33:22.772Z,81.54
2023-04-08T02:35:51.473Z,81.18
2023-04-08T02:38:18.148Z,80.82
2023-04-08T02:40:44.530Z,80.59
2023-04-08T02:43:11.025Z,80.52
2023-04-08T02:45:46.647Z,81.07
2023-04-08T02:48:13.105Z,81.00
2023-04-08T02:50:40.636Z,81.04
2023-04-08T02:53:09.658Z,81.62
2023-04-08T02:55:36.095Z,81.83
2023-04-08T02:58:02.599Z,82.06
2023-04-08T03:00:29.086Z,82.41
2023-04-08T03:02:55.952Z,82.29
2023-04-08T03:05:22.785Z,82.04
2023-04-08T03:07:49.269Z,81.85
2023-04-08T03:10:16.209Z,81.85
2023-04-08T03:12:42.640Z,81.91
2023-04-08T03:15:09.478Z,81.82
2023-04-08T03:17:36.181Z,82.04
2023-04-08T03:20:04.822Z,82.87
2023-04-08T03:22:31.353Z,82.08
2023-04-08T03:24:57.864Z,82.05
2023-04-08T03:27:24.458Z,82.46
2023-04-08T03:29:50.940Z,82.32
2023-04-08T03:32:17.408Z,82.40
2023-04-08T03:34:43.899Z,82.84
2023-04-08T03:37:10.554Z,82.88
2023-04-08T03:39:36.980Z,83.16
2023-04-08T03:42:03.537Z,83.12
2023-04-08T03:44:30.243Z,83.00
2023-04-08T03:46:56.685Z,83.35
2023-04-08T03:49:23.525Z,82.93
2023-04-08T03:51:50.127Z,83.16
2023-04-08T03:54:16.553Z,83.55
2023-04-08T03:56:42.936Z,83.75
2023-04-08T03:59:09.341Z,83.24
2023-04-08T04:01:35.872Z,82.82
2023-04-08T04:04:02.468Z,83.10
2023-04-08T04:06:28.958Z,83.96
2023-04-08T04:08:55.615Z,84.15
2023-04-08T04:11:22.553Z,84.03
2023-04-08T04:13:49.335Z,84.20
2023-04-08T04:16:16.012Z,84.45
2023-04-08T04:18:42.654Z,84.18
2023-04-08T04:21:09.393Z,84.52
2023-04-08T04:23:35.889Z,84.19
2023-04-08T04:26:02.302Z,84.28
2023-04-08T04:28:28.684Z,83.93
2023-04-08T04:30:56.548Z,83.51
2023-04-08T04:33:23.312Z,84.07
2023-04-08T04:35:49.909Z,84.25
2023-04-08T04:38:16.333Z,84.15
2023-04-08T04:40:44.224Z,83.73
2023-04-08T04:43:11.266Z,83.71
2023-04-08T04:45:37.740Z,83.70
2023-04-08T04:48:04.336Z,84.04
2023-04-08T04:50:30.960Z,84.22
2023-04-08T04:52:57.370Z,84.20
2023-04-08T04:55:23.858Z,83.95
2023-04-08T04:57:50.391Z,84.36
2023-04-08T05:00:17.101Z,83.68
2023-04-08T05:02:43.789Z,83.30
2023-04-08T05:05:10.653Z,84.12
2023-04-08T05:07:38.075Z,83.83
2023-04-08T05:10:05.959Z,83.86
2023-04-08T05:12:32.498Z,83.44
2023-04-08T05:15:02.161Z,83.37
2023-04-08T05:17:28.658Z,83.67
2023-04-08T05:19:55.134Z,83.60
2023-04-08T05:22:21.872Z,83.59
2023-04-08T05:24:48.871Z,83.41
2023-04-08T05:27:15.566Z,83.40
2023-04-08T05:29:41.963Z,83.30
2023-04-08T05:32:08.367Z,83.69
2023-04-08T05:34:34.923Z,83.17
2023-04-08T05:37:01.376Z,83.11
2023-04-08T05:39:27.742Z,82.92
2023-04-08T05:41:54.210Z,83.27
2023-04-08T05:44:20.936Z,83.31
2023-04-08T05:46:47.562Z,83.30
2023-04-08T05:49:14.061Z,83.75
2023-04-08T05:51:40.498Z,83.64
2023-04-08T05:54:06.979Z,83.63
2023-04-08T05:56:33.462Z,83.21
2023-04-08T05:58:59.837Z,83.69
2023-04-08T06:01:26.553Z,83.77
2023-04-08T06:03:53.465Z,83.73
2023-04-08T06:06:20.002Z,83.86
2023-04-08T06:08:47.188Z,83.54
2023-04-08T06:11:13.848Z,83.11
2023-04-08T06:13:40.344Z,83.57
2023-04-08T06:16:19.604Z,84.10
2023-04-08T06:18:47.333Z,83.96
2023-04-08T06:21:14.441Z,84.34
2023-04-08T06:23:41.234Z,84.39
2023-04-08T06:26:07.923Z,84.37
2023-04-08T06:28:34.404Z,84.44
2023-04-08T06:31:00.930Z,83.95
2023-04-08T06:33:27.524Z,83.95
2023-04-08T06:36:04.650Z,84.10
2023-04-08T06:38:32.196Z,83.89
2023-04-08T06:41:06.509Z,84.39
2023-04-08T06:43:34.400Z,83.51
2023-04-08T06:46:01.288Z,83.85
2023-04-08T06:48:31.056Z,83.84
2023-04-08T06:50:58.637Z,84.41
2023-04-08T06:53:26.102Z,84.22
2023-04-08T06:55:52.941Z,84.41
2023-04-08T06:58:19.416Z,84.16
2023-04-08T07:00:45.882Z,83.83
2023-04-08T07:03:12.926Z,84.00
2023-04-08T07:05:39.753Z,83.75
2023-04-08T07:08:06.630Z,83.67
2023-04-08T07:10:34.978Z,83.54
2023-04-08T07:13:01.730Z,83.65
2023-04-08T07:15:28.155Z,84.09
2023-04-08T07:17:57.027Z,83.49
2023-04-08T07:20:23.706Z,83.75
2023-04-08T07:22:50.337Z,83.92
2023-04-08T07:25:16.972Z,83.92
2023-04-08T07:27:43.831Z,84.07
2023-04-08T07:30:10.516Z,84.52
2023-04-08T07:32:37.123Z,84.24
2023-04-08T07:35:03.977Z,83.90
2023-04-08T07:37:30.427Z,84.23
2023-04-08T07:39:56.896Z,84.24
2023-04-08T07:42:23.336Z,83.85
2023-04-08T07:44:49.721Z,83.55
2023-04-08T07:47:16.597Z,83.74
2023-04-08T07:49:42.987Z,84.23
2023-04-08T07:52:09.384Z,84.09
2023-04-08T07:54:38.195Z,84.04
2023-04-08T07:57:04.633Z,84.20
2023-04-08T07:59:32.235Z,84.03
2023-04-08T08:01:58.674Z,84.63
2023-04-08T08:04:26.204Z,84.39
2023-04-08T08:06:52.950Z,83.31
2023-04-08T08:09:19.409Z,83.50
2023-04-08T08:11:46.016Z,84.02
2023-04-08T08:14:13.874Z,84.12
2023-04-08T08:16:40.503Z,84.28
2023-04-08T08:19:08.746Z,84.03
2023-04-08T08:21:39.349Z,83.96
2023-04-08T08:24:06.477Z,84.35
2023-04-08T08:26:39.074Z,84.46
2023-04-08T08:29:06.569Z,84.00
2023-04-08T08:31:33.106Z,84.06
2023-04-08T08:33:59.627Z,84.59
2023-04-08T08:36:27.511Z,84.05
2023-04-08T08:38:54.257Z,84.64
2023-04-08T08:41:21.655Z,84.52
2023-04-08T08:43:48.958Z,84.59
2023-04-08T08:46:17.473Z,84.35
2023-04-08T08:48:44.524Z,84.13
2023-04-08T08:51:12.442Z,84.48
2023-04-08T08:53:39.091Z,84.33
2023-04-08T08:58:39.177Z,84.62
2023-04-08T09:01:34.159Z,84.69
2023-04-08T09:04:26.931Z,84.20
2023-04-08T09:07:10.999Z,84.25
2023-04-08T09:09:58.359Z,84.50
2023-04-08T09:12:28.246Z,83.71
2023-04-08T09:15:06.213Z,83.65
2023-04-08T09:17:40.286Z,83.38
2023-04-08T09:20:12.206Z,82.77
2023-04-08T09:22:53.935Z,82.41
2023-04-08T09:25:38.532Z,82.23
2023-04-08T09:28:05.456Z,81.50
2023-04-08T09:30:32.565Z,81.79
2023-04-08T09:32:59.128Z,81.65
2023-04-08T09:35:26.034Z,81.01
2023-04-08T09:37:52.606Z,80.38
2023-04-08T09:40:19.392Z,79.95
2023-04-08T09:42:48.800Z,79.69
2023-04-08T09:45:16.318Z,79.52
2023-04-08T09:48:19.212Z,79.89
2023-04-08T09:50:50.465Z,78.90
2023-04-08T09:53:26.385Z,78.31
2023-04-08T09:55:57.035Z,78.40
2023-04-08T09:58:29.172Z,78.33
2023-04-08T10:00:56.055Z,77.91
2023-04-08T10:03:40.412Z,77.02
2023-04-08T10:06:10.402Z,76.47
2023-04-08T10:08:36.925Z,76.13
2023-04-08T10:11:03.694Z,76.38
2023-04-08T10:13:30.493Z,77.24
2023-04-08T10:16:19.328Z,77.21
2023-04-08T10:18:45.921Z,77.49
2023-04-08T10:21:31.508Z,78.26
2023-04-08T10:23:59.935Z,78.14
2023-04-08T10:26:37.763Z,78.05
2023-04-08T10:29:19.652Z,78.32
2023-04-08T10:31:47.064Z,78.83
2023-04-08T10:34:21.672Z,79.24
2023-04-08T10:36:49.003Z,79.41
2023-04-08T10:39:16.601Z,79.54
2023-04-08T10:41:43.855Z,79.55
2023-04-08T10:44:17.026Z,79.37
2023-04-08T10:46:44.074Z,79.55
2023-04-08T10:49:10.917Z,79.75
2023-04-08T10:51:38.747Z,79.65
2023-04-08T10:54:09.932Z,79.32
2023-04-08T10:56:43.646Z,78.82
2023-04-08T10:59:10.992Z,78.82
2023-04-08T11:01:42.071Z,79.33
2023-04-08T11:04:23.567Z,78.52
2023-04-08T11:06:50.254Z,78.55
2023-04-08T11:09:17.152Z,78.68
2023-04-08T11:11:45.057Z,78.75
2023-04-08T11:14:12.535Z,78.40
2023-04-08T11:16:39.666Z,78.38
2023-04-08T11:19:07.097Z,77.79
2023-04-08T11:21:38.470Z,77.02
2023-04-08T11:24:12.264Z,77.18
2023-04-08T11:26:39.700Z,76.47
2023-04-08T11:29:06.837Z,76.42
2023-04-08T11:31:34.456Z,77.18
2023-04-08T11:34:01.149Z,76.75
2023-04-08T11:36:29.389Z,76.66
2023-04-08T11:38:55.956Z,76.57
2023-04-08T11:41:23.422Z,76.43
2023-04-08T11:43:55.663Z,75.27
2023-04-08T11:46:23.067Z,74.84
2023-04-08T11:49:04.803Z,74.60
2023-04-08T11:51:33.951Z,73.07
2023-04-08T11:54:04.409Z,72.72
2023-04-08T11:56:33.526Z,72.50
2023-04-08T11:59:00.275Z,71.37
2023-04-08T12:01:27.016Z,70.21
2023-04-08T12:03:58.502Z,69.45
2023-04-08T12:06:27.224Z,69.90
2023-04-08T12:08:57.189Z,70.47
2023-04-08T12:11:24.302Z,70.83
2023-04-08T12:13:51.599Z,69.98
2023-04-08T12:16:19.122Z,69.79
2023-04-08T12:18:46.521Z,68.99
2023-04-08T12:21:12.984Z,69.02
2023-04-08T12:23:39.626Z,67.56
2023-04-08T12:26:06.414Z,67.56
2023-04-08T12:28:34.760Z,67.64
2023-04-08T12:31:01.652Z,66.35
2023-04-08T12:33:28.078Z,66.14
2023-04-08T12:35:54.484Z,65.87
2023-04-08T12:38:20.966Z,64.96
2023-04-08T12:40:49.186Z,64.55
2023-04-08T12:43:16.651Z,64.69
2023-04-08T12:45:43.423Z,64.55
2023-04-08T12:48:10.614Z,65.42
2023-04-08T12:50:37.033Z,65.16
2023-04-08T12:53:03.456Z,66.44
2023-04-08T12:55:29.899Z,66.54
2023-04-08T12:57:56.694Z,67.22
2023-04-08T13:00:23.116Z,67.76
2023-04-08T13:02:49.666Z,68.54
2023-04-08T13:05:19.756Z,69.49
2023-04-08T13:07:48.105Z,69.86
2023-04-08T13:10:14.538Z,69.55
2023-04-08T13:12:41.163Z,68.92
2023-04-08T13:15:08.543Z,68.68
2023-04-08T13:17:35.055Z,68.53
2023-04-08T13:20:01.461Z,68.14
2023-04-08T13:22:27.916Z,68.11
2023-04-08T13:24:54.387Z,67.85
2023-04-08T13:27:20.798Z,67.34
2023-04-08T13:29:47.214Z,68.13
2023-04-08T13:32:13.725Z,67.20
2023-04-08T13:34:40.764Z,67.79
2023-04-08T13:37:07.231Z,67.69
2023-04-08T13:39:33.601Z,67.58
2023-04-08T13:41:59.983Z,68.17
2023-04-08T13:44:26.521Z,67.33
2023-04-08T13:46:53.169Z,66.85
2023-04-08T13:49:20.449Z,66.48
2023-04-08T13:51:46.937Z,66.01
2023-04-08T13:54:13.326Z,67.08
2023-04-08T13:56:39.760Z,66.62
2023-04-08T13:59:07.154Z,65.40
2023-04-08T14:01:33.659Z,64.85
2023-04-08T14:04:00.277Z,65.17
2023-04-08T14:06:27.349Z,64.97
2023-04-08T14:08:54.085Z,65.91
2023-04-08T14:11:21.320Z,66.98
2023-04-08T14:13:47.803Z,66.29
2023-04-08T14:16:14.315Z,67.78
2023-04-08T14:18:40.777Z,68.15
2023-04-08T14:21:07.693Z,68.24
2023-04-08T14:23:34.150Z,68.30
2023-04-08T14:26:01.541Z,69.14
2023-04-08T14:28:27.923Z,68.99
2023-04-08T14:30:54.369Z,69.26
2023-04-08T14:33:21.051Z,69.41
2023-04-08T14:35:47.802Z,68.57
2023-04-08T14:38:14.285Z,67.70
2023-04-08T14:40:40.698Z,67.76
2023-04-08T14:43:07.382Z,66.97
2023-04-08T14:45:33.779Z,66.86
2023-04-08T14:48:00.221Z,67.22
2023-04-08T14:50:27.429Z,66.86
2023-04-08T14:52:53.837Z,67.01
2023-04-08T14:55:22.508Z,67.54
2023-04-08T14:57:48.972Z,68.32
2023-04-08T15:00:15.845Z,68.25
2023-04-08T15:02:42.319Z,68.17
2023-04-08T15:05:08.935Z,68.68
2023-04-08T15:07:36.064Z,68.79
2023-04-08T15:10:02.649Z,69.04
2023-04-08T15:12:29.311Z,68.79
2023-04-08T15:14:55.797Z,68.40
2023-04-08T15:17:22.319Z,68.88
2023-04-08T15:19:49.086Z,67.95
2023-04-08T15:22:15.764Z,67.70
2023-04-08T15:24:42.769Z,67.09
2023-04-08T15:27:09.298Z,66.99
2023-04-08T15:29:35.781Z,66.83
2023-04-08T15:32:02.334Z,65.44
2023-04-08T15:34:28.787Z,65.21
2023-04-08T15:36:57.257Z,66.67
2023-04-08T15:39:24.602Z,66.63
2023-04-08T15:41:51.133Z,66.62
2023-04-08T15:44:17.563Z,66.40
2023-04-08T15:46:44.046Z,66.23
2023-04-08T15:49:10.485Z,66.03
2023-04-08T15:51:36.950Z,66.03
2023-04-08T15:54:04.033Z,66.08
2023-04-08T15:56:30.478Z,65.85
2023-04-08T15:58:57.383Z,65.40
2023-04-08T16:01:23.827Z,65.62
2023-04-08T16:03:50.589Z,65.83
2023-04-08T16:06:17.024Z,66.34
2023-04-08T16:08:44.668Z,65.80
2023-04-08T16:11:11.410Z,66.02
2023-04-08T16:13:40.605Z,66.33
2023-04-08T16:16:08.688Z,65.26
2023-04-08T16:18:35.413Z,65.65
2023-04-08T16:21:05.939Z,66.13
2023-04-08T16:23:34.048Z,65.81
2023-04-08T16:26:00.957Z,65.87
2023-04-08T16:28:27.879Z,65.78
2023-04-08T16:30:54.265Z,65.69
2023-04-08T16:33:23.983Z,65.90
2023-04-08T16:35:50.497Z,66.84
2023-04-08T16:38:17.050Z,67.73
2023-04-08T16:40:43.469Z,68.21
2023-04-08T16:43:09.947Z,67.93
2023-04-08T16:45:36.383Z,67.78
2023-04-08T16:48:02.969Z,68.22
2023-04-08T16:50:29.470Z,66.90
2023-04-08T16:52:55.880Z,67.04
2023-04-08T16:55:22.498Z,67.36
2023-04-08T16:57:49.132Z,67.51
2023-04-08T17:00:21.034Z,65.80
2023-04-08T17:02:47.825Z,65.06
2023-04-08T17:05:14.373Z,64.72
2023-04-08T17:07:43.090Z,65.62
2023-04-08T17:10:10.307Z,66.55
2023-04-08T17:12:36.839Z,66.78
2023-04-08T17:15:03.821Z,68.11
2023-04-08T17:17:30.352Z,69.06
2023-04-08T17:19:56.962Z,68.45
2023-04-08T17:22:23.475Z,69.12
2023-04-08T17:24:49.870Z,69.43
2023-04-08T17:27:17.362Z,69.26
2023-04-08T17:29:44.013Z,69.45
2023-04-08T17:32:12.417Z,69.03
2023-04-08T17:34:39.283Z,69.37
2023-04-08T17:37:05.697Z,69.97
2023-04-08T17:39:32.273Z,69.90
2023-04-08T17:41:58.709Z,70.40
2023-04-08T17:44:29.941Z,70.20
2023-04-08T17:46:56.764Z,70.44
2023-04-08T17:49:23.503Z,70.08
2023-04-08T17:51:50.714Z,70.86
2023-04-08T17:54:17.620Z,70.81
2023-04-08T17:56:45.160Z,70.76
2023-04-08T17:59:12.770Z,71.05
2023-04-08T18:01:39.517Z,71.17
2023-04-08T18:04:08.292Z,70.48
2023-04-08T18:06:35.076Z,70.80
2023-04-08T18:09:03.744Z,70.59
2023-04-08T18:11:30.560Z,71.21
2023-04-08T18:13:57.052Z,71.00
2023-04-08T18:16:23.649Z,71.32
2023-04-08T18:18:50.422Z,71.01
2023-04-08T18:21:19.778Z,70.86
2023-04-08T18:23:49.378Z,70.30
2023-04-08T18:26:16.231Z,70.69
2023-04-08T18:28:42.681Z,70.88
2023-04-08T18:31:09.314Z,71.23
2023-04-08T18:33:36.324Z,70.81
2023-04-08T18:36:10.250Z,70.75
2023-04-08T18:38:36.775Z,70.90
2023-04-08T18:41:04.231Z,70.68
2023-04-08T18:43:30.956Z,70.70
2023-04-08T18:45:57.985Z,70.51
2023-04-08T18:48:24.569Z,70.98
2023-04-08T18:50:51.060Z,70.86
2023-04-08T18:53:17.540Z,70.68
2023-04-08T18:55:44.760Z,70.18
2023-04-08T18:58:11.559Z,69.83
2023-04-08T19:00:41.539Z,69.83
2023-04-08T19:03:10.254Z,70.18
2023-04-08T19:05:37.786Z,69.54
2023-04-08T19:08:04.470Z,69.73
2023-04-08T19:10:31.766Z,70.15
2023-04-08T19:12:58.464Z,70.10
2023-04-08T19:15:25.545Z,70.50
2023-04-08T19:17:52.682Z,70.95
2023-04-08T19:20:19.178Z,71.13
2023-04-08T19:22:48.220Z,71.05
2023-04-08T19:25:14.582Z,70.85
2023-04-08T19:27:41.026Z,70.18
2023-04-08T19:30:08.082Z,69.90
2023-04-08T19:32:35.421Z,69.95
2023-04-08T19:35:01.935Z,69.90
2023-04-08T19:37:28.416Z,70.43
2023-04-08T19:39:54.808Z,70.19
2023-04-08T19:42:21.251Z,70.30
2023-04-08T19:44:48.670Z,70.95
2023-04-08T19:47:17.022Z,71.05
2023-04-08T19:49:43.602Z,71.49
2023-04-08T19:52:10.023Z,71.31
2023-04-08T19:54:37.050Z,71.07
2023-04-08T19:57:03.574Z,70.71
2023-04-08T19:59:29.974Z,70.90
2023-04-08T20:01:56.436Z,70.85
2023-04-08T20:04:23.097Z,71.70
2023-04-08T20:06:49.630Z,72.25
2023-04-08T20:09:16.151Z,71.62
2023-04-08T20:11:42.655Z,71.14
2023-04-08T20:14:09.084Z,71.09
2023-04-08T20:16:35.468Z,71.08
2023-04-08T20:19:01.980Z,71.11
2023-04-08T20:21:28.728Z,72.24
2023-04-08T20:23:55.630Z,71.41
2023-04-08T20:26:22.099Z,70.88
2023-04-08T20:28:48.648Z,71.51
2023-04-08T20:31:16.026Z,72.22
2023-04-08T20:33:45.611Z,72.75
2023-04-08T20:36:13.670Z,72.95
2023-04-08T20:38:40.736Z,73.11
2023-04-08T20:41:11.440Z,73.08
2023-04-08T20:43:39.363Z,73.93
2023-04-08T20:46:05.815Z,73.71
2023-04-08T20:48:33.375Z,74.10
2023-04-08T20:51:00.175Z,73.81
2023-04-08T20:53:27.464Z,74.87
2023-04-08T20:55:53.950Z,74.14
2023-04-08T20:58:20.573Z,74.31
2023-04-08T21:00:47.691Z,72.74
2023-04-08T21:03:14.919Z,72.35
2023-04-08T21:05:41.831Z,73.36
2023-04-08T21:08:08.673Z,73.28
2023-04-08T21:10:35.377Z,71.78
2023-04-08T21:13:01.811Z,72.37
2023-04-08T21:15:28.622Z,72.13
2023-04-08T21:17:55.320Z,71.18
2023-04-08T21:20:22.016Z,71.15
2023-04-08T21:22:48.434Z,71.12
2023-04-08T21:25:15.010Z,71.07
2023-04-08T21:27:41.666Z,71.74
2023-04-08T21:30:08.501Z,71.21
2023-04-08T21:32:35.148Z,71.25
2023-04-08T21:35:01.591Z,71.17
2023-04-08T21:37:28.120Z,71.30
2023-04-08T21:39:54.609Z,72.05
2023-04-08T21:42:22.799Z,71.76
2023-04-08T21:44:49.801Z,72.42
2023-04-08T21:47:16.359Z,72.14
2023-04-08T21:49:43.023Z,72.20
2023-04-08T21:52:09.647Z,71.92
2023-04-08T21:54:36.208Z,72.63
2023-04-08T21:57:02.585Z,71.93
2023-04-08T21:59:29.097Z,71.86
2023-04-08T22:01:55.672Z,71.80
2023-04-08T22:04:22.145Z,72.09
2023-04-08T22:06:49.417Z,71.47
2023-04-08T22:09:16.892Z,71.73
2023-04-08T22:11:43.455Z,71.45
2023-04-08T22:14:09.959Z,71.26
2023-04-08T22:16:36.741Z,71.54
2023-04-08T22:19:03.193Z,71.78
2023-04-08T22:21:29.623Z,72.07
2023-04-08T22:23:56.112Z,71.94
2023-04-08T22:26:22.627Z,71.86
2023-04-08T22:28:49.085Z,72.03
2023-04-08T22:31:15.706Z,71.79
2023-04-08T22:33:42.413Z,71.93
2023-04-08T22:36:08.882Z,72.16
2023-04-08T22:38:35.662Z,72.54
2023-04-08T22:41:02.193Z,72.67
2023-04-08T22:43:28.759Z,72.74
2023-04-08T22:45:55.680Z,73.38
2023-04-08T22:48:22.198Z,73.50
2023-04-08T22:50:48.636Z,74.04
2023-04-08T22:53:15.717Z,74.14
2023-04-08T22:55:42.236Z,73.90
2023-04-08T22:58:08.613Z,74.35
2023-04-08T23:00:35.109Z,74.66
2023-04-08T23:03:04.675Z,74.57
2023-04-08T23:05:31.374Z,74.38
2023-04-08T23:07:57.860Z,74.80
2023-04-08T23:10:24.333Z,74.65
2023-04-08T23:12:50.704Z,75.16
2023-04-08T23:15:17.467Z,74.97
2023-04-08T23:17:44.025Z,75.00
2023-04-08T23:20:10.974Z,73.87
2023-04-08T23:22:37.393Z,73.95
2023-04-08T23:25:04.241Z,73.59
2023-04-08T23:27:31.502Z,73.60
2023-04-08T23:29:57.989Z,74.11
2023-04-08T23:32:24.438Z,75.03
2023-04-08T23:34:50.844Z,75.31
2023-04-08T23:37:17.227Z,76.29
2023-04-08T23:39:43.607Z,76.14
2023-04-08T23:42:10.026Z,76.09
2023-04-08T23:44:36.447Z,76.36
2023-04-08T23:47:02.931Z,76.66
2023-04-08T23:49:30.991Z,76.69
2023-04-08T23:51:57.480Z,76.36
2023-04-08T23:54:24.139Z,76.49
2023-04-08T23:56:50.653Z,76.21
2023-04-08T23:59:17.224Z,76.51
